sensor_id;sensor_type;location;lat;lon;timestamp;pressure;altitude;pressure_sealevel;temperature;humidity
49063;BME280;34876;51.464;-0.150;2023-04-25T00:03:38;101469.26;;;17.31;37.59
49063;BME280;34876;51.464;-0.150;2023-04-25T00:06:08;101465.62;;;17.43;39.74
49063;BME280;34876;51.464;-0.150;2023-04-25T00:08:37;101469.24;;;17.05;36.22
49063;BME280;34876;51.464;-0.150;2023-04-25T00:11:07;101461.41;;;17.39;39.71
49063;BME280;34876;51.464;-0.150;2023-04-25T00:13:37;101456.05;;;17.21;37.12
49063;BME280;34876;51.464;-0.150;2023-04-25T00:16:07;101449.44;;;17.68;39.17
49063;BME280;34876;51.464;-0.150;2023-04-25T00:18:37;101450.79;;;16.80;40.06
49063;BME280;34876;51.464;-0.150;2023-04-25T00:21:08;101450.04;;;17.61;39.04
49063;BME280;34876;51.464;-0.150;2023-04-25T00:23:38;101459.91;;;17.02;40.21
49063;BME280;34876;51.464;-0.150;2023-04-25T00:26:08;101457.75;;;17.55;39.13
49063;BME280;34876;51.464;-0.150;2023-04-25T00:28:39;101450.11;;;17.60;39.10
49063;BME280;34876;51.464;-0.150;2023-04-25T00:31:08;101458.81;;;17.13;39.92
49063;BME280;34876;51.464;-0.150;2023-04-25T00:33:37;101466.40;;;17.58;36.14
49063;BME280;34876;51.464;-0.150;2023-04-25T00:36:08;101471.12;;;17.25;38.25
49063;BME280;34876;51.464;-0.150;2023-04-25T00:38:38;101476.05;;;17.48;39.21
49063;BME280;34876;51.464;-0.150;2023-04-25T00:41:08;101474.81;;;17.62;38.89
49063;BME280;34876;51.464;-0.150;2023-04-25T00:43:48;101473.14;;;17.37;36.62
49063;BME280;34876;51.464;-0.150;2023-04-25T00:46:17;101471.61;;;17.61;38.92
49063;BME280;34876;51.464;-0.150;2023-04-25T00:48:46;101474.46;;;17.77;38.53
49063;BME280;34876;51.464;-0.150;2023-04-25T00:51:19;101477.11;;;17.81;38.43
49063;BME280;34876;51.464;-0.150;2023-04-25T00:53:50;101481.01;;;17.47;38.90
49063;BME280;34876;51.464;-0.150;2023-04-25T00:56:19;101479.28;;;17.74;38.42
49063;BME280;34876;51.464;-0.150;2023-04-25T00:58:50;101484.67;;;17.65;38.51
49063;BME280;34876;51.464;-0.150;2023-04-25T01:01:22;101484.52;;;17.79;38.39
49063;BME280;34876;51.464;-0.150;2023-04-25T01:03:51;101486.37;;;17.37;39.23
49063;BME280;34876;51.464;-0.150;2023-04-25T01:06:21;101482.04;;;17.68;38.47
49063;BME280;34876;51.464;-0.150;2023-04-25T01:08:49;101485.97;;;17.69;38.51
49063;BME280;34876;51.464;-0.150;2023-04-25T01:11:20;101477.13;;;17.77;38.24
49063;BME280;34876;51.464;-0.150;2023-04-25T01:13:51;101480.42;;;17.64;38.23
49063;BME280;34876;51.464;-0.150;2023-04-25T01:16:20;101493.05;;;16.99;39.81
49063;BME280;34876;51.464;-0.150;2023-04-25T01:18:49;101489.82;;;17.36;38.98
49063;BME280;34876;51.464;-0.150;2023-04-25T01:21:19;101494.56;;;17.70;38.23
49063;BME280;34876;51.464;-0.150;2023-04-25T01:23:49;101491.09;;;17.77;38.03
49063;BME280;34876;51.464;-0.150;2023-04-25T01:26:18;101484.28;;;17.78;38.00
49063;BME280;34876;51.464;-0.150;2023-04-25T01:28:51;101481.55;;;17.79;38.07
49063;BME280;34876;51.464;-0.150;2023-04-25T01:31:21;101483.31;;;17.45;38.56
49063;BME280;34876;51.464;-0.150;2023-04-25T01:33:51;101476.13;;;17.73;37.85
49063;BME280;34876;51.464;-0.150;2023-04-25T01:36:21;101486.49;;;17.61;37.87
49063;BME280;34876;51.464;-0.150;2023-04-25T01:38:51;101488.72;;;17.77;37.93
49063;BME280;34876;51.464;-0.150;2023-04-25T01:41:21;101494.51;;;17.79;37.86
49063;BME280;34876;51.464;-0.150;2023-04-25T01:43:51;101495.94;;;17.66;38.03
49063;BME280;34876;51.464;-0.150;2023-04-25T01:46:19;101490.47;;;17.77;37.80
49063;BME280;34876;51.464;-0.150;2023-04-25T01:48:52;101493.89;;;17.29;38.22
49063;BME280;34876;51.464;-0.150;2023-04-25T01:51:21;101505.15;;;17.37;38.32
49063;BME280;34876;51.464;-0.150;2023-04-25T01:53:52;101510.55;;;17.70;37.84
49063;BME280;34876;51.464;-0.150;2023-04-25T01:56:23;101510.09;;;17.68;37.87
49063;BME280;34876;51.464;-0.150;2023-04-25T01:58:53;101507.75;;;17.78;37.62
49063;BME280;34876;51.464;-0.150;2023-04-25T02:01:24;101503.47;;;17.70;37.73
49063;BME280;34876;51.464;-0.150;2023-04-25T02:03:59;101509.11;;;16.89;37.22
49063;BME280;34876;51.464;-0.150;2023-04-25T02:06:28;101501.97;;;17.60;37.94
49063;BME280;34876;51.464;-0.150;2023-04-25T02:08:57;101501.38;;;17.56;37.84
49063;BME280;34876;51.464;-0.150;2023-04-25T02:11:26;101508.01;;;17.35;35.95
49063;BME280;34876;51.464;-0.150;2023-04-25T02:13:55;101506.20;;;17.68;37.78
49063;BME280;34876;51.464;-0.150;2023-04-25T02:16:24;101508.62;;;17.54;37.76
49063;BME280;34876;51.464;-0.150;2023-04-25T02:18:53;101511.53;;;17.71;37.60
49063;BME280;34876;51.464;-0.150;2023-04-25T02:21:22;101518.93;;;17.60;37.82
49063;BME280;34876;51.464;-0.150;2023-04-25T02:23:51;101526.63;;;16.76;39.29
49063;BME280;34876;51.464;-0.150;2023-04-25T02:26:20;101522.54;;;17.46;37.89
49063;BME280;34876;51.464;-0.150;2023-04-25T02:28:50;101521.21;;;17.51;38.01
49063;BME280;34876;51.464;-0.150;2023-04-25T02:31:19;101518.35;;;17.69;37.56
49063;BME280;34876;51.464;-0.150;2023-04-25T02:33:49;101519.48;;;17.48;37.80
49063;BME280;34876;51.464;-0.150;2023-04-25T02:36:19;101518.35;;;17.67;37.56
49063;BME280;34876;51.464;-0.150;2023-04-25T02:38:48;101517.08;;;17.49;37.57
49063;BME280;34876;51.464;-0.150;2023-04-25T02:41:17;101520.93;;;17.24;38.19
49063;BME280;34876;51.464;-0.150;2023-04-25T02:43:46;101521.72;;;17.25;38.24
49063;BME280;34876;51.464;-0.150;2023-04-25T02:46:15;101518.39;;;17.40;37.92
49063;BME280;34876;51.464;-0.150;2023-04-25T02:48:44;101518.08;;;17.30;38.01
49063;BME280;34876;51.464;-0.150;2023-04-25T02:51:13;101524.25;;;17.23;37.94
49063;BME280;34876;51.464;-0.150;2023-04-25T02:53:42;101523.78;;;17.58;37.45
49063;BME280;34876;51.464;-0.150;2023-04-25T02:56:11;101526.96;;;17.24;34.53
49063;BME280;34876;51.464;-0.150;2023-04-25T02:58:40;101525.17;;;17.36;37.91
49063;BME280;34876;51.464;-0.150;2023-04-25T03:01:09;101527.83;;;17.38;37.79
49063;BME280;34876;51.464;-0.150;2023-04-25T03:03:38;101538.76;;;17.27;37.90
49063;BME280;34876;51.464;-0.150;2023-04-25T03:06:08;101535.17;;;17.60;37.37
49063;BME280;34876;51.464;-0.150;2023-04-25T03:08:37;101537.79;;;17.65;37.23
49063;BME280;34876;51.464;-0.150;2023-04-25T03:11:06;101530.94;;;17.62;37.17
49063;BME280;34876;51.464;-0.150;2023-04-25T03:13:35;101534.05;;;17.07;37.88
49063;BME280;34876;51.464;-0.150;2023-04-25T03:16:05;101537.31;;;17.11;37.72
49063;BME280;34876;51.464;-0.150;2023-04-25T03:18:34;101529.90;;;17.48;37.48
49063;BME280;34876;51.464;-0.150;2023-04-25T03:21:03;101536.36;;;17.28;37.75
49063;BME280;34876;51.464;-0.150;2023-04-25T03:23:32;101529.67;;;17.41;37.46
49063;BME280;34876;51.464;-0.150;2023-04-25T03:26:02;101532.66;;;17.60;37.13
49063;BME280;34876;51.464;-0.150;2023-04-25T03:28:30;101538.58;;;17.64;36.91
49063;BME280;34876;51.464;-0.150;2023-04-25T03:30:59;101543.72;;;17.64;37.03
49063;BME280;34876;51.464;-0.150;2023-04-25T03:33:29;101552.22;;;17.15;37.84
49063;BME280;34876;51.464;-0.150;2023-04-25T03:35:58;101549.90;;;17.41;37.31
49063;BME280;34876;51.464;-0.150;2023-04-25T03:38:27;101556.67;;;17.34;37.43
49063;BME280;34876;51.464;-0.150;2023-04-25T03:40:55;101555.74;;;17.60;37.03
49063;BME280;34876;51.464;-0.150;2023-04-25T03:43:26;101555.90;;;17.59;36.87
49063;BME280;34876;51.464;-0.150;2023-04-25T03:45:55;101559.79;;;17.63;36.86
49063;BME280;34876;51.464;-0.150;2023-04-25T03:48:24;101566.22;;;17.37;33.35
49063;BME280;34876;51.464;-0.150;2023-04-25T03:50:54;101557.56;;;17.52;37.07
49063;BME280;34876;51.464;-0.150;2023-04-25T03:53:24;101567.09;;;17.34;37.13
49063;BME280;34876;51.464;-0.150;2023-04-25T03:55:53;101562.23;;;17.59;36.73
49063;BME280;34876;51.464;-0.150;2023-04-25T03:58:21;101564.55;;;17.63;36.74
49063;BME280;34876;51.464;-0.150;2023-04-25T04:00:50;101576.29;;;17.51;36.83
49063;BME280;34876;51.464;-0.150;2023-04-25T04:03:19;101576.04;;;17.36;37.20
49063;BME280;34876;51.464;-0.150;2023-04-25T04:05:49;101567.05;;;17.53;36.81
49063;BME280;34876;51.464;-0.150;2023-04-25T04:08:18;101575.30;;;17.26;37.41
49063;BME280;34876;51.464;-0.150;2023-04-25T04:10:48;101571.55;;;17.52;36.85
49063;BME280;34876;51.464;-0.150;2023-04-25T04:13:17;101570.81;;;17.58;36.71
49063;BME280;34876;51.464;-0.150;2023-04-25T04:15:46;101574.97;;;17.61;36.57
49063;BME280;34876;51.464;-0.150;2023-04-25T04:18:15;101587.74;;;17.34;36.82
49063;BME280;34876;51.464;-0.150;2023-04-25T04:20:44;101581.66;;;17.60;36.60
49063;BME280;34876;51.464;-0.150;2023-04-25T04:23:13;101590.35;;;17.37;37.06
49063;BME280;34876;51.464;-0.150;2023-04-25T04:25:43;101595.99;;;17.57;36.73
49063;BME280;34876;51.464;-0.150;2023-04-25T04:28:13;101601.96;;;17.50;36.75
49063;BME280;34876;51.464;-0.150;2023-04-25T04:30:42;101600.80;;;17.61;36.52
49063;BME280;34876;51.464;-0.150;2023-04-25T04:33:10;101608.23;;;17.61;36.47
49063;BME280;34876;51.464;-0.150;2023-04-25T04:35:40;101610.98;;;17.51;36.54
49063;BME280;34876;51.464;-0.150;2023-04-25T04:38:09;101614.48;;;17.41;36.70
49063;BME280;34876;51.464;-0.150;2023-04-25T04:40:39;101615.41;;;17.33;36.94
49063;BME280;34876;51.464;-0.150;2023-04-25T04:43:08;101619.32;;;17.53;36.53
49063;BME280;34876;51.464;-0.150;2023-04-25T04:45:37;101631.27;;;17.43;36.71
49063;BME280;34876;51.464;-0.150;2023-04-25T04:48:06;101634.83;;;17.51;36.64
49063;BME280;34876;51.464;-0.150;2023-04-25T04:50:35;101637.21;;;17.31;36.94
49063;BME280;34876;51.464;-0.150;2023-04-25T04:53:04;101637.65;;;17.42;36.54
49063;BME280;34876;51.464;-0.150;2023-04-25T04:55:34;101641.05;;;17.50;36.39
49063;BME280;34876;51.464;-0.150;2023-04-25T04:58:08;101637.07;;;17.54;36.33
49063;BME280;34876;51.464;-0.150;2023-04-25T05:00:37;101636.23;;;17.38;36.57
49063;BME280;34876;51.464;-0.150;2023-04-25T05:03:08;101632.93;;;17.56;36.33
49063;BME280;34876;51.464;-0.150;2023-04-25T05:05:38;101634.97;;;17.48;36.34
49063;BME280;34876;51.464;-0.150;2023-04-25T05:08:07;101630.13;;;17.50;36.22
49063;BME280;34876;51.464;-0.150;2023-04-25T05:10:36;101633.44;;;17.29;36.62
49063;BME280;34876;51.464;-0.150;2023-04-25T05:13:08;101642.72;;;17.38;36.48
49063;BME280;34876;51.464;-0.150;2023-04-25T05:15:38;101655.35;;;17.29;36.12
49063;BME280;34876;51.464;-0.150;2023-04-25T05:18:07;101659.75;;;17.28;36.65
49063;BME280;34876;51.464;-0.150;2023-04-25T05:20:36;101660.41;;;17.46;36.27
49063;BME280;34876;51.464;-0.150;2023-04-25T05:23:05;101666.31;;;17.55;36.16
49063;BME280;34876;51.464;-0.150;2023-04-25T05:25:34;101674.46;;;17.32;36.26
49063;BME280;34876;51.464;-0.150;2023-04-25T05:28:03;101674.48;;;17.53;36.01
49063;BME280;34876;51.464;-0.150;2023-04-25T05:30:32;101678.93;;;17.60;35.93
49063;BME280;34876;51.464;-0.150;2023-04-25T05:33:00;101687.58;;;17.61;35.74
49063;BME280;34876;51.464;-0.150;2023-04-25T05:35:30;101698.96;;;17.41;36.15
49063;BME280;34876;51.464;-0.150;2023-04-25T05:37:59;101701.77;;;17.50;36.02
49063;BME280;34876;51.464;-0.150;2023-04-25T05:40:27;101707.31;;;17.60;35.83
49063;BME280;34876;51.464;-0.150;2023-04-25T05:42:56;101711.65;;;17.61;35.82
49063;BME280;34876;51.464;-0.150;2023-04-25T05:45:26;101714.85;;;17.58;35.96
49063;BME280;34876;51.464;-0.150;2023-04-25T05:47:55;101710.66;;;17.67;35.68
49063;BME280;34876;51.464;-0.150;2023-04-25T05:50:24;101708.93;;;17.14;36.06
49063;BME280;34876;51.464;-0.150;2023-04-25T05:52:55;101707.70;;;17.41;35.31
49063;BME280;34876;51.464;-0.150;2023-04-25T05:55:24;101706.36;;;17.65;35.65
49063;BME280;34876;51.464;-0.150;2023-04-25T05:57:53;101707.20;;;17.66;35.51
49063;BME280;34876;51.464;-0.150;2023-04-25T06:00:22;101708.94;;;17.47;36.00
49063;BME280;34876;51.464;-0.150;2023-04-25T06:02:51;101715.82;;;17.62;35.73
49063;BME280;34876;51.464;-0.150;2023-04-25T06:05:20;101719.86;;;17.64;35.45
49063;BME280;34876;51.464;-0.150;2023-04-25T06:07:49;101723.09;;;17.74;35.39
49063;BME280;34876;51.464;-0.150;2023-04-25T06:10:18;101723.68;;;17.86;35.17
49063;BME280;34876;51.464;-0.150;2023-04-25T06:12:47;101717.58;;;17.86;35.22
49063;BME280;34876;51.464;-0.150;2023-04-25T06:15:17;101720.91;;;17.77;35.00
49063;BME280;34876;51.464;-0.150;2023-04-25T06:17:46;101720.38;;;17.72;35.31
49063;BME280;34876;51.464;-0.150;2023-04-25T06:20:15;101722.16;;;18.16;34.63
49063;BME280;34876;51.464;-0.150;2023-04-25T06:22:44;101724.85;;;18.82;33.17
49063;BME280;34876;51.464;-0.150;2023-04-25T06:25:14;101724.77;;;19.15;32.47
49063;BME280;34876;51.464;-0.150;2023-04-25T06:27:43;101721.88;;;19.03;32.72
49063;BME280;34876;51.464;-0.150;2023-04-25T06:30:12;101720.52;;;19.34;32.26
49063;BME280;34876;51.464;-0.150;2023-04-25T06:32:41;101721.72;;;19.07;32.20
49063;BME280;34876;51.464;-0.150;2023-04-25T06:35:10;101718.69;;;19.13;31.46
49063;BME280;34876;51.464;-0.150;2023-04-25T06:37:39;101722.92;;;19.57;31.60
49063;BME280;34876;51.464;-0.150;2023-04-25T06:40:09;101728.96;;;19.74;31.39
49063;BME280;34876;51.464;-0.150;2023-04-25T06:42:38;101727.21;;;19.92;31.14
49063;BME280;34876;51.464;-0.150;2023-04-25T06:45:08;101727.03;;;19.92;31.03
49063;BME280;34876;51.464;-0.150;2023-04-25T06:47:38;101730.76;;;19.98;30.92
49063;BME280;34876;51.464;-0.150;2023-04-25T06:50:09;101735.68;;;19.35;31.72
49063;BME280;34876;51.464;-0.150;2023-04-25T06:52:38;101735.96;;;19.89;31.12
49063;BME280;34876;51.464;-0.150;2023-04-25T06:55:08;101737.51;;;20.08;30.78
49063;BME280;34876;51.464;-0.150;2023-04-25T06:57:37;101741.77;;;20.08;29.05
49063;BME280;34876;51.464;-0.150;2023-04-25T07:00:07;101739.07;;;19.89;28.47
49063;BME280;34876;51.464;-0.150;2023-04-25T07:02:36;101735.24;;;20.26;30.50
49063;BME280;34876;51.464;-0.150;2023-04-25T07:05:06;101733.22;;;20.38;30.27
49063;BME280;34876;51.464;-0.150;2023-04-25T07:07:35;101734.57;;;20.14;30.57
49063;BME280;34876;51.464;-0.150;2023-04-25T07:10:05;101744.46;;;20.24;30.32
49063;BME280;34876;51.464;-0.150;2023-04-25T07:12:34;101745.88;;;19.92;26.44
49063;BME280;34876;51.464;-0.150;2023-04-25T07:15:04;101745.02;;;20.27;30.34
49063;BME280;34876;51.464;-0.150;2023-04-25T07:17:34;101747.88;;;20.36;29.93
49063;BME280;34876;51.464;-0.150;2023-04-25T07:20:05;101752.68;;;20.45;29.95
49063;BME280;34876;51.464;-0.150;2023-04-25T07:22:34;101755.54;;;20.23;29.98
49063;BME280;34876;51.464;-0.150;2023-04-25T07:25:04;101756.52;;;20.50;30.01
49063;BME280;34876;51.464;-0.150;2023-04-25T07:27:34;101763.73;;;20.57;26.63
49063;BME280;34876;51.464;-0.150;2023-04-25T07:30:05;101763.26;;;20.51;29.46
49063;BME280;34876;51.464;-0.150;2023-04-25T07:32:36;101763.07;;;19.80;30.99
49063;BME280;34876;51.464;-0.150;2023-04-25T07:35:06;101770.72;;;18.91;31.93
49063;BME280;34876;51.464;-0.150;2023-04-25T07:37:35;101773.84;;;18.94;32.70
49063;BME280;34876;51.464;-0.150;2023-04-25T07:40:05;101772.42;;;19.33;30.49
49063;BME280;34876;51.464;-0.150;2023-04-25T07:42:41;101772.77;;;19.79;31.01
49063;BME280;34876;51.464;-0.150;2023-04-25T07:45:10;101773.08;;;20.14;30.55
49063;BME280;34876;51.464;-0.150;2023-04-25T07:47:39;101775.29;;;20.36;30.08
49063;BME280;34876;51.464;-0.150;2023-04-25T07:50:09;101778.06;;;19.81;31.11
49063;BME280;34876;51.464;-0.150;2023-04-25T07:52:38;101780.89;;;19.21;32.06
49063;BME280;34876;51.464;-0.150;2023-04-25T07:55:08;101793.51;;;18.41;30.94
49063;BME280;34876;51.464;-0.150;2023-04-25T07:57:36;101794.68;;;18.05;32.60
49063;BME280;34876;51.464;-0.150;2023-04-25T08:00:06;101805.43;;;17.73;34.19
49063;BME280;34876;51.464;-0.150;2023-04-25T08:02:35;101807.50;;;18.16;34.20
49063;BME280;34876;51.464;-0.150;2023-04-25T08:05:05;101810.29;;;17.87;32.95
49063;BME280;34876;51.464;-0.150;2023-04-25T08:07:35;101816.28;;;18.47;33.36
49063;BME280;34876;51.464;-0.150;2023-04-25T08:10:05;101812.12;;;19.25;28.45
49063;BME280;34876;51.464;-0.150;2023-04-25T08:12:35;101814.55;;;19.20;32.20
49063;BME280;34876;51.464;-0.150;2023-04-25T08:15:07;101816.25;;;19.19;31.83
49063;BME280;34876;51.464;-0.150;2023-04-25T08:17:37;101823.00;;;18.52;28.96
49063;BME280;34876;51.464;-0.150;2023-04-25T08:20:07;101819.41;;;18.50;33.54
49063;BME280;34876;51.464;-0.150;2023-04-25T08:22:38;101817.74;;;18.46;32.98
49063;BME280;34876;51.464;-0.150;2023-04-25T08:25:07;101820.94;;;18.05;34.20
49063;BME280;34876;51.464;-0.150;2023-04-25T08:27:36;101824.18;;;18.33;33.69
49063;BME280;34876;51.464;-0.150;2023-04-25T08:30:11;101827.05;;;18.40;33.58
49063;BME280;34876;51.464;-0.150;2023-04-25T08:32:40;101833.46;;;17.26;34.59
49063;BME280;34876;51.464;-0.150;2023-04-25T08:35:09;101833.24;;;18.06;30.49
49063;BME280;34876;51.464;-0.150;2023-04-25T08:37:39;101832.15;;;17.78;34.47
49063;BME280;34876;51.464;-0.150;2023-04-25T08:40:12;101836.66;;;17.25;34.87
49063;BME280;34876;51.464;-0.150;2023-04-25T08:42:43;101835.83;;;17.05;35.27
49063;BME280;34876;51.464;-0.150;2023-04-25T08:45:12;101831.70;;;18.28;33.88
49063;BME280;34876;51.464;-0.150;2023-04-25T08:47:45;101836.35;;;17.03;33.89
49063;BME280;34876;51.464;-0.150;2023-04-25T08:50:14;101827.06;;;18.19;34.02
49063;BME280;34876;51.464;-0.150;2023-04-25T08:52:45;101823.20;;;19.03;29.91
49063;BME280;34876;51.464;-0.150;2023-04-25T08:55:15;101818.44;;;19.17;32.04
49063;BME280;34876;51.464;-0.150;2023-04-25T08:57:45;101821.63;;;19.25;28.40
49063;BME280;34876;51.464;-0.150;2023-04-25T09:00:16;101827.20;;;18.91;27.94
49063;BME280;34876;51.464;-0.150;2023-04-25T09:02:46;101822.99;;;19.20;31.54
49063;BME280;34876;51.464;-0.150;2023-04-25T09:05:16;101829.11;;;18.46;32.99
49063;BME280;34876;51.464;-0.150;2023-04-25T09:07:46;101817.11;;;19.14;30.23
49063;BME280;34876;51.464;-0.150;2023-04-25T09:10:14;101815.69;;;19.37;31.04
49063;BME280;34876;51.464;-0.150;2023-04-25T09:12:44;101819.48;;;19.55;26.86
49063;BME280;34876;51.464;-0.150;2023-04-25T09:15:14;101827.22;;;18.67;31.69
49063;BME280;34876;51.464;-0.150;2023-04-25T09:17:44;101823.26;;;19.16;31.92
49063;BME280;34876;51.464;-0.150;2023-04-25T09:20:13;101830.38;;;18.21;28.33
49063;BME280;34876;51.464;-0.150;2023-04-25T09:22:45;101828.81;;;18.92;30.13
49063;BME280;34876;51.464;-0.150;2023-04-25T09:25:15;101818.37;;;19.36;31.70
49063;BME280;34876;51.464;-0.150;2023-04-25T09:27:52;101819.46;;;19.16;30.14
49063;BME280;34876;51.464;-0.150;2023-04-25T09:30:29;101830.81;;;18.95;31.80
49063;BME280;34876;51.464;-0.150;2023-04-25T09:33:04;101823.07;;;19.40;30.05
49063;BME280;34876;51.464;-0.150;2023-04-25T09:35:36;101818.53;;;19.09;28.98
49063;BME280;34876;51.464;-0.150;2023-04-25T09:38:08;101822.11;;;19.54;30.02
49063;BME280;34876;51.464;-0.150;2023-04-25T09:40:40;101815.66;;;19.34;31.58
49063;BME280;34876;51.464;-0.150;2023-04-25T09:43:10;101817.62;;;19.22;31.29
49063;BME280;34876;51.464;-0.150;2023-04-25T09:45:42;101815.67;;;19.26;31.67
49063;BME280;34876;51.464;-0.150;2023-04-25T09:48:12;101822.27;;;18.92;32.10
49063;BME280;34876;51.464;-0.150;2023-04-25T09:50:45;101817.02;;;19.11;31.36
49063;BME280;34876;51.464;-0.150;2023-04-25T09:53:16;101824.67;;;18.61;31.21
49063;BME280;34876;51.464;-0.150;2023-04-25T09:55:46;101820.48;;;17.80;32.86
49063;BME280;34876;51.464;-0.150;2023-04-25T09:58:15;101818.90;;;18.94;31.97
49063;BME280;34876;51.464;-0.150;2023-04-25T10:00:45;101820.45;;;18.86;32.19
49063;BME280;34876;51.464;-0.150;2023-04-25T10:03:17;101820.06;;;18.22;32.36
49063;BME280;34876;51.464;-0.150;2023-04-25T10:05:47;101819.94;;;18.80;32.25
49063;BME280;34876;51.464;-0.150;2023-04-25T10:08:18;101821.77;;;18.90;31.89
49063;BME280;34876;51.464;-0.150;2023-04-25T10:10:48;101818.34;;;18.97;30.37
49063;BME280;34876;51.464;-0.150;2023-04-25T10:13:19;101823.40;;;18.67;26.33
49063;BME280;34876;51.464;-0.150;2023-04-25T10:15:48;101812.47;;;19.10;31.87
49063;BME280;34876;51.464;-0.150;2023-04-25T10:18:18;101826.38;;;18.59;31.87
49063;BME280;34876;51.464;-0.150;2023-04-25T10:20:47;101835.89;;;18.00;32.80
49063;BME280;34876;51.464;-0.150;2023-04-25T10:23:18;101833.39;;;18.02;33.50
49063;BME280;34876;51.464;-0.150;2023-04-25T10:25:49;101834.71;;;18.49;32.81
49063;BME280;34876;51.464;-0.150;2023-04-25T10:28:20;101829.36;;;17.96;33.63
49063;BME280;34876;51.464;-0.150;2023-04-25T10:31:07;101825.45;;;18.17;33.50
49063;BME280;34876;51.464;-0.150;2023-04-25T10:33:37;101829.52;;;18.25;32.94
49063;BME280;34876;51.464;-0.150;2023-04-25T10:36:10;101828.79;;;18.45;26.60
49063;BME280;34876;51.464;-0.150;2023-04-25T10:38:43;101824.41;;;18.41;29.80
49063;BME280;34876;51.464;-0.150;2023-04-25T10:41:13;101825.85;;;17.97;26.84
49063;BME280;34876;51.464;-0.150;2023-04-25T10:43:46;101829.30;;;17.93;33.23
49063;BME280;34876;51.464;-0.150;2023-04-25T10:46:18;101828.86;;;18.20;33.37
49063;BME280;34876;51.464;-0.150;2023-04-25T10:48:50;101832.67;;;17.71;34.11
49063;BME280;34876;51.464;-0.150;2023-04-25T10:51:22;101834.18;;;17.94;33.61
49063;BME280;34876;51.464;-0.150;2023-04-25T10:54:00;101828.36;;;17.79;33.82
49063;BME280;34876;51.464;-0.150;2023-04-25T10:56:30;101829.20;;;17.47;33.51
49063;BME280;34876;51.464;-0.150;2023-04-25T10:59:08;101828.78;;;17.89;33.75
49063;BME280;34876;51.464;-0.150;2023-04-25T11:01:39;101825.86;;;17.63;33.94
49063;BME280;34876;51.464;-0.150;2023-04-25T11:04:29;101831.53;;;17.95;33.60
49063;BME280;34876;51.464;-0.150;2023-04-25T11:07:07;101834.30;;;17.68;27.89
49063;BME280;34876;51.464;-0.150;2023-04-25T11:09:39;101827.25;;;17.85;33.82
49063;BME280;34876;51.464;-0.150;2023-04-25T11:12:09;101827.20;;;17.60;29.68
49063;BME280;34876;51.464;-0.150;2023-04-25T11:14:38;101831.26;;;17.87;33.89
49063;BME280;34876;51.464;-0.150;2023-04-25T11:17:07;101827.25;;;17.79;33.76
49063;BME280;34876;51.464;-0.150;2023-04-25T11:19:36;101824.18;;;17.82;33.90
49063;BME280;34876;51.464;-0.150;2023-04-25T11:22:06;101825.58;;;18.15;30.71
49063;BME280;34876;51.464;-0.150;2023-04-25T11:24:35;101822.66;;;18.32;33.11
49063;BME280;34876;51.464;-0.150;2023-04-25T11:27:05;101813.21;;;18.44;32.79
49063;BME280;34876;51.464;-0.150;2023-04-25T11:29:35;101807.83;;;18.40;32.93
49063;BME280;34876;51.464;-0.150;2023-04-25T11:32:05;101812.33;;;18.00;33.29
49063;BME280;34876;51.464;-0.150;2023-04-25T11:34:34;101807.31;;;18.35;32.65
49063;BME280;34876;51.464;-0.150;2023-04-25T11:37:04;101806.35;;;18.01;33.47
49063;BME280;34876;51.464;-0.150;2023-04-25T11:39:33;101809.18;;;18.11;33.37
49063;BME280;34876;51.464;-0.150;2023-04-25T11:42:01;101817.40;;;17.94;33.68
49063;BME280;34876;51.464;-0.150;2023-04-25T11:44:32;101814.81;;;17.70;32.89
49063;BME280;34876;51.464;-0.150;2023-04-25T11:47:01;101813.93;;;17.88;31.27
49063;BME280;34876;51.464;-0.150;2023-04-25T11:49:31;101822.54;;;18.07;33.38
49063;BME280;34876;51.464;-0.150;2023-04-25T11:52:00;101827.21;;;17.66;33.91
49063;BME280;34876;51.464;-0.150;2023-04-25T11:54:28;101825.76;;;17.95;33.47
49063;BME280;34876;51.464;-0.150;2023-04-25T11:56:57;101825.84;;;17.90;33.60
49063;BME280;34876;51.464;-0.150;2023-04-25T11:59:27;101820.84;;;18.13;33.24
49063;BME280;34876;51.464;-0.150;2023-04-25T12:01:56;101821.04;;;18.06;29.62
49063;BME280;34876;51.464;-0.150;2023-04-25T12:04:25;101822.50;;;18.18;32.91
49063;BME280;34876;51.464;-0.150;2023-04-25T12:06:55;101822.81;;;17.99;33.34
49063;BME280;34876;51.464;-0.150;2023-04-25T12:09:29;101822.18;;;17.66;32.69
49063;BME280;34876;51.464;-0.150;2023-04-25T12:12:00;101827.03;;;17.94;33.45
49063;BME280;34876;51.464;-0.150;2023-04-25T12:14:31;101822.75;;;17.70;33.58
49063;BME280;34876;51.464;-0.150;2023-04-25T12:17:02;101823.71;;;17.76;33.34
49063;BME280;34876;51.464;-0.150;2023-04-25T12:19:33;101820.06;;;18.00;33.35
49063;BME280;34876;51.464;-0.150;2023-04-25T12:22:03;101823.90;;;18.11;33.13
49063;BME280;34876;51.464;-0.150;2023-04-25T12:24:47;101826.77;;;17.38;27.36
49063;BME280;34876;51.464;-0.150;2023-04-25T12:27:17;101826.30;;;17.88;29.17
49063;BME280;34876;51.464;-0.150;2023-04-25T12:29:58;101829.42;;;17.59;30.06
49063;BME280;34876;51.464;-0.150;2023-04-25T12:32:27;101832.55;;;17.39;26.79
49063;BME280;34876;51.464;-0.150;2023-04-25T12:34:57;101832.54;;;17.78;33.37
49063;BME280;34876;51.464;-0.150;2023-04-25T12:37:28;101837.00;;;17.43;34.09
49063;BME280;34876;51.464;-0.150;2023-04-25T12:39:57;101832.79;;;17.84;33.56
49063;BME280;34876;51.464;-0.150;2023-04-25T12:42:26;101831.40;;;17.60;26.14
49063;BME280;34876;51.464;-0.150;2023-04-25T12:44:55;101841.02;;;17.03;32.15
49063;BME280;34876;51.464;-0.150;2023-04-25T12:47:24;101833.58;;;17.93;33.29
49063;BME280;34876;51.464;-0.150;2023-04-25T12:49:54;101834.38;;;18.04;32.99
49063;BME280;34876;51.464;-0.150;2023-04-25T12:52:23;101837.26;;;17.97;33.03
49063;BME280;34876;51.464;-0.150;2023-04-25T12:54:52;101834.55;;;18.00;32.73
49063;BME280;34876;51.464;-0.150;2023-04-25T12:57:20;101833.33;;;18.10;32.28